sensor_id;sensor_type;location;lat;lon;timestamp;P1;durP1;ratioP1;P2;durP2;ratioP2
4676;SDS011;2352;48.180;11.478;2022-11-20T00:00:43;2.03;;;1.83;;
4676;SDS011;2352;48.180;11.478;2022-11-20T00:03:46;1.87;;;1.77;;
4676;SDS011;2352;48.180;11.478;2022-11-20T00:06:49;1.87;;;1.50;;
4676;SDS011;2352;48.180;11.478;2022-11-20T00:09:52;1.40;;;1.30;;
4676;SDS011;2352;48.180;11.478;2022-11-20T00:12:57;2.20;;;2.00;;
4676;SDS011;2352;48.180;11.478;2022-11-20T00:16:00;2.90;;;2.23;;
4676;SDS011;2352;48.180;11.478;2022-11-20T00:19:05;2.30;;;2.10;;
4676;SDS011;2352;48.180;11.478;2022-11-20T00:22:08;1.90;;;1.80;;
4676;SDS011;2352;48.180;11.478;2022-11-20T00:25:10;3.03;;;2.80;;
4676;SDS011;2352;48.180;11.478;2022-11-20T00:28:15;3.50;;;2.43;;
4676;SDS011;2352;48.180;11.478;2022-11-20T00:31:18;1.90;;;1.80;;
4676;SDS011;2352;48.180;11.478;2022-11-20T00:34:21;2.40;;;2.20;;
4676;SDS011;2352;48.180;11.478;2022-11-20T00:37:24;2.37;;;2.17;;
4676;SDS011;2352;48.180;11.478;2022-11-20T00:40:27;2.70;;;2.50;;
4676;SDS011;2352;48.180;11.478;2022-11-20T00:43:31;3.67;;;3.40;;
4676;SDS011;2352;48.180;11.478;2022-11-20T00:46:34;2.43;;;2.23;;
4676;SDS011;2352;48.180;11.478;2022-11-20T00:49:37;1.83;;;1.73;;
4676;SDS011;2352;48.180;11.478;2022-11-20T00:52:40;2.20;;;2.10;;
4676;SDS011;2352;48.180;11.478;2022-11-20T00:55:52;1.80;;;1.63;;
4676;SDS011;2352;48.180;11.478;2022-11-20T00:58:58;2.83;;;2.60;;
4676;SDS011;2352;48.180;11.478;2022-11-20T01:02:02;2.17;;;2.03;;
4676;SDS011;2352;48.180;11.478;2022-11-20T01:05:05;3.07;;;2.80;;
4676;SDS011;2352;48.180;11.478;2022-11-20T01:08:08;1.87;;;1.67;;
4676;SDS011;2352;48.180;11.478;2022-11-20T01:11:13;2.40;;;2.20;;
4676;SDS011;2352;48.180;11.478;2022-11-20T01:14:18;2.53;;;2.37;;
4676;SDS011;2352;48.180;11.478;2022-11-20T01:17:22;2.57;;;2.37;;
4676;SDS011;2352;48.180;11.478;2022-11-20T01:20:25;2.20;;;1.80;;
4676;SDS011;2352;48.180;11.478;2022-11-20T01:23:29;2.60;;;2.40;;
4676;SDS011;2352;48.180;11.478;2022-11-20T01:26:34;2.57;;;2.47;;
4676;SDS011;2352;48.180;11.478;2022-11-20T01:29:40;2.50;;;2.30;;
4676;SDS011;2352;48.180;11.478;2022-11-20T01:32:43;2.73;;;2.53;;
4676;SDS011;2352;48.180;11.478;2022-11-20T01:35:45;2.10;;;2.00;;
4676;SDS011;2352;48.180;11.478;2022-11-20T01:38:50;2.97;;;2.77;;
4676;SDS011;2352;48.180;11.478;2022-11-20T01:41:54;2.63;;;2.50;;
4676;SDS011;2352;48.180;11.478;2022-11-20T01:49:02;2.73;;;2.50;;
4676;SDS011;2352;48.180;11.478;2022-11-20T01:52:09;2.17;;;2.03;;
4676;SDS011;2352;48.180;11.478;2022-11-20T01:55:17;3.60;;;2.70;;
4676;SDS011;2352;48.180;11.478;2022-11-20T01:58:25;2.90;;;2.70;;
4676;SDS011;2352;48.180;11.478;2022-11-20T02:01:33;2.47;;;2.30;;
4676;SDS011;2352;48.180;11.478;2022-11-20T02:04:36;2.20;;;2.10;;
4676;SDS011;2352;48.180;11.478;2022-11-20T02:07:39;3.03;;;2.83;;
4676;SDS011;2352;48.180;11.478;2022-11-20T02:10:43;2.23;;;2.13;;
4676;SDS011;2352;48.180;11.478;2022-11-20T02:13:46;2.97;;;2.77;;
4676;SDS011;2352;48.180;11.478;2022-11-20T02:16:51;2.93;;;2.73;;
4676;SDS011;2352;48.180;11.478;2022-11-20T02:19:56;2.80;;;2.60;;
4676;SDS011;2352;48.180;11.478;2022-11-20T02:22:59;2.40;;;2.20;;
4676;SDS011;2352;48.180;11.478;2022-11-20T02:26:09;3.10;;;2.90;;
4676;SDS011;2352;48.180;11.478;2022-11-20T02:29:15;3.97;;;3.67;;
4676;SDS011;2352;48.180;11.478;2022-11-20T02:32:26;2.33;;;2.23;;
4676;SDS011;2352;48.180;11.478;2022-11-20T02:35:40;3.33;;;3.07;;
4676;SDS011;2352;48.180;11.478;2022-11-20T02:38:44;3.00;;;2.80;;
4676;SDS011;2352;48.180;11.478;2022-11-20T02:41:49;2.43;;;2.33;;
4676;SDS011;2352;48.180;11.478;2022-11-20T02:44:52;3.03;;;2.83;;
4676;SDS011;2352;48.180;11.478;2022-11-20T02:47:54;2.47;;;2.27;;
4676;SDS011;2352;48.180;11.478;2022-11-20T02:50:58;2.50;;;2.30;;
4676;SDS011;2352;48.180;11.478;2022-11-20T02:54:01;2.33;;;2.13;;
4676;SDS011;2352;48.180;11.478;2022-11-20T02:57:05;2.30;;;2.20;;
4676;SDS011;2352;48.180;11.478;2022-11-20T03:00:08;3.17;;;2.73;;
4676;SDS011;2352;48.180;11.478;2022-11-20T03:03:12;4.03;;;3.73;;
4676;SDS011;2352;48.180;11.478;2022-11-20T03:06:15;2.80;;;2.60;;
4676;SDS011;2352;48.180;11.478;2022-11-20T03:09:18;2.70;;;2.50;;
4676;SDS011;2352;48.180;11.478;2022-11-20T03:12:23;2.90;;;2.53;;
4676;SDS011;2352;48.180;11.478;2022-11-20T03:15:26;3.30;;;3.00;;
4676;SDS011;2352;48.180;11.478;2022-11-20T03:18:29;2.43;;;2.23;;
4676;SDS011;2352;48.180;11.478;2022-11-20T03:21:32;2.67;;;2.57;;
4676;SDS011;2352;48.180;11.478;2022-11-20T03:24:36;2.73;;;2.53;;
4676;SDS011;2352;48.180;11.478;2022-11-20T03:27:40;2.43;;;2.17;;
4676;SDS011;2352;48.180;11.478;2022-11-20T03:30:43;2.57;;;2.43;;
4676;SDS011;2352;48.180;11.478;2022-11-20T03:33:46;2.30;;;2.20;;
4676;SDS011;2352;48.180;11.478;2022-11-20T03:36:49;2.60;;;2.50;;
4676;SDS011;2352;48.180;11.478;2022-11-20T03:39:51;1.93;;;1.83;;
4676;SDS011;2352;48.180;11.478;2022-11-20T03:42:56;2.70;;;2.50;;
4676;SDS011;2352;48.180;11.478;2022-11-20T03:45:59;2.30;;;2.20;;
4676;SDS011;2352;48.180;11.478;2022-11-20T03:49:02;2.30;;;1.93;;
4676;SDS011;2352;48.180;11.478;2022-11-20T03:52:05;4.20;;;2.67;;
4676;SDS011;2352;48.180;11.478;2022-11-20T03:55:08;2.80;;;2.60;;
4676;SDS011;2352;48.180;11.478;2022-11-20T03:58:13;3.27;;;3.07;;
4676;SDS011;2352;48.180;11.478;2022-11-20T04:01:16;2.60;;;2.40;;
4676;SDS011;2352;48.180;11.478;2022-11-20T04:04:20;2.57;;;2.47;;
4676;SDS011;2352;48.180;11.478;2022-11-20T04:07:23;2.83;;;2.63;;
4676;SDS011;2352;48.180;11.478;2022-11-20T04:10:26;4.40;;;3.03;;
4676;SDS011;2352;48.180;11.478;2022-11-20T04:13:30;3.10;;;2.80;;
4676;SDS011;2352;48.180;11.478;2022-11-20T04:16:34;2.30;;;2.20;;
4676;SDS011;2352;48.180;11.478;2022-11-20T04:19:38;2.83;;;2.63;;
4676;SDS011;2352;48.180;11.478;2022-11-20T04:22:41;2.50;;;2.27;;
4676;SDS011;2352;48.180;11.478;2022-11-20T04:25:44;3.13;;;2.40;;
4676;SDS011;2352;48.180;11.478;2022-11-20T04:28:48;2.87;;;2.67;;
4676;SDS011;2352;48.180;11.478;2022-11-20T04:31:51;2.50;;;2.13;;
4676;SDS011;2352;48.180;11.478;2022-11-20T04:34:54;2.40;;;2.30;;
4676;SDS011;2352;48.180;11.478;2022-11-20T04:37:57;2.07;;;1.87;;
4676;SDS011;2352;48.180;11.478;2022-11-20T04:41:00;2.43;;;2.23;;
4676;SDS011;2352;48.180;11.478;2022-11-20T04:44:05;3.00;;;2.80;;
4676;SDS011;2352;48.180;11.478;2022-11-20T04:47:08;2.60;;;2.40;;
4676;SDS011;2352;48.180;11.478;2022-11-20T04:50:11;2.67;;;2.47;;
4676;SDS011;2352;48.180;11.478;2022-11-20T04:53:14;2.40;;;2.20;;
4676;SDS011;2352;48.180;11.478;2022-11-20T04:56:17;2.27;;;2.17;;
4676;SDS011;2352;48.180;11.478;2022-11-20T04:59:22;2.37;;;2.27;;
4676;SDS011;2352;48.180;11.478;2022-11-20T05:02:25;2.13;;;2.03;;
4676;SDS011;2352;48.180;11.478;2022-11-20T05:05:28;2.73;;;2.53;;
4676;SDS011;2352;48.180;11.478;2022-11-20T05:08:31;2.77;;;2.57;;
4676;SDS011;2352;48.180;11.478;2022-11-20T05:11:35;3.97;;;2.50;;
4676;SDS011;2352;48.180;11.478;2022-11-20T05:14:39;2.50;;;2.30;;
4676;SDS011;2352;48.180;11.478;2022-11-20T05:17:46;2.97;;;2.63;;
4676;SDS011;2352;48.180;11.478;2022-11-20T05:20:54;2.20;;;2.10;;
4676;SDS011;2352;48.180;11.478;2022-11-20T05:23:58;2.27;;;2.17;;
4676;SDS011;2352;48.180;11.478;2022-11-20T05:27:00;2.30;;;2.20;;
4676;SDS011;2352;48.180;11.478;2022-11-20T05:30:06;4.13;;;3.30;;
4676;SDS011;2352;48.180;11.478;2022-11-20T05:33:09;2.50;;;2.30;;
4676;SDS011;2352;48.180;11.478;2022-11-20T05:36:13;2.60;;;2.40;;
4676;SDS011;2352;48.180;11.478;2022-11-20T05:39:17;2.23;;;2.10;;
4676;SDS011;2352;48.180;11.478;2022-11-20T05:42:20;2.80;;;2.60;;
4676;SDS011;2352;48.180;11.478;2022-11-20T05:45:33;2.07;;;1.97;;
4676;SDS011;2352;48.180;11.478;2022-11-20T05:48:37;2.77;;;2.30;;
4676;SDS011;2352;48.180;11.478;2022-11-20T05:51:40;2.10;;;2.00;;
4676;SDS011;2352;48.180;11.478;2022-11-20T05:54:43;2.30;;;2.20;;
4676;SDS011;2352;48.180;11.478;2022-11-20T05:57:46;2.10;;;2.00;;
4676;SDS011;2352;48.180;11.478;2022-11-20T06:00:50;2.10;;;1.90;;
4676;SDS011;2352;48.180;11.478;2022-11-20T06:03:53;2.13;;;2.03;;
4676;SDS011;2352;48.180;11.478;2022-11-20T06:06:56;2.67;;;2.47;;
4676;SDS011;2352;48.180;11.478;2022-11-20T06:09:59;2.03;;;1.83;;
4676;SDS011;2352;48.180;11.478;2022-11-20T06:13:02;2.40;;;2.20;;
4676;SDS011;2352;48.180;11.478;2022-11-20T06:16:07;2.67;;;2.47;;
4676;SDS011;2352;48.180;11.478;2022-11-20T06:19:10;2.23;;;2.13;;
4676;SDS011;2352;48.180;11.478;2022-11-20T06:22:13;2.53;;;2.43;;
4676;SDS011;2352;48.180;11.478;2022-11-20T06:25:16;2.40;;;2.20;;
4676;SDS011;2352;48.180;11.478;2022-11-20T06:28:19;2.63;;;2.43;;
4676;SDS011;2352;48.180;11.478;2022-11-20T06:31:23;2.30;;;2.10;;
4676;SDS011;2352;48.180;11.478;2022-11-20T06:34:27;1.93;;;1.83;;
4676;SDS011;2352;48.180;11.478;2022-11-20T06:37:30;2.70;;;2.50;;
4676;SDS011;2352;48.180;11.478;2022-11-20T06:40:33;2.53;;;2.10;;
4676;SDS011;2352;48.180;11.478;2022-11-20T06:43:35;2.33;;;2.23;;
4676;SDS011;2352;48.180;11.478;2022-11-20T06:46:40;2.17;;;2.00;;
4676;SDS011;2352;48.180;11.478;2022-11-20T06:49:43;1.90;;;1.80;;
4676;SDS011;2352;48.180;11.478;2022-11-20T06:52:45;1.60;;;1.50;;
4676;SDS011;2352;48.180;11.478;2022-11-20T06:55:49;1.50;;;1.40;;
4676;SDS011;2352;48.180;11.478;2022-11-20T06:58:52;2.13;;;1.90;;
4676;SDS011;2352;48.180;11.478;2022-11-20T07:01:56;2.03;;;1.93;;
4676;SDS011;2352;48.180;11.478;2022-11-20T07:04:59;3.87;;;2.03;;
4676;SDS011;2352;48.180;11.478;2022-11-20T07:08:02;2.00;;;1.90;;
4676;SDS011;2352;48.180;11.478;2022-11-20T07:11:06;1.77;;;1.63;;
4676;SDS011;2352;48.180;11.478;2022-11-20T07:14:09;2.07;;;1.97;;
4676;SDS011;2352;48.180;11.478;2022-11-20T07:17:14;2.33;;;2.13;;
4676;SDS011;2352;48.180;11.478;2022-11-20T07:20:17;2.03;;;1.93;;
4676;SDS011;2352;48.180;11.478;2022-11-20T07:23:20;1.93;;;1.60;;
4676;SDS011;2352;48.180;11.478;2022-11-20T07:26:23;3.57;;;2.20;;
4676;SDS011;2352;48.180;11.478;2022-11-20T07:29:25;2.50;;;2.00;;
4676;SDS011;2352;48.180;11.478;2022-11-20T07:32:30;2.57;;;2.03;;
4676;SDS011;2352;48.180;11.478;2022-11-20T07:35:33;2.50;;;2.30;;
4676;SDS011;2352;48.180;11.478;2022-11-20T07:38:37;2.50;;;2.30;;
4676;SDS011;2352;48.180;11.478;2022-11-20T07:41:39;2.73;;;2.37;;
4676;SDS011;2352;48.180;11.478;2022-11-20T07:44:42;2.87;;;2.03;;
4676;SDS011;2352;48.180;11.478;2022-11-20T07:47:47;2.50;;;2.30;;
4676;SDS011;2352;48.180;11.478;2022-11-20T07:50:52;2.70;;;2.50;;
4676;SDS011;2352;48.180;11.478;2022-11-20T07:53:55;2.50;;;2.40;;
4676;SDS011;2352;48.180;11.478;2022-11-20T07:56:58;2.97;;;2.77;;
4676;SDS011;2352;48.180;11.478;2022-11-20T08:00:02;5.30;;;2.93;;
4676;SDS011;2352;48.180;11.478;2022-11-20T08:03:07;3.77;;;2.70;;
4676;SDS011;2352;48.180;11.478;2022-11-20T08:06:10;2.73;;;2.53;;
4676;SDS011;2352;48.180;11.478;2022-11-20T08:09:12;3.63;;;2.13;;
4676;SDS011;2352;48.180;11.478;2022-11-20T08:12:16;2.77;;;2.57;;
4676;SDS011;2352;48.180;11.478;2022-11-20T08:15:38;2.17;;;2.03;;
4676;SDS011;2352;48.180;11.478;2022-11-20T08:18:43;3.00;;;2.80;;
4676;SDS011;2352;48.180;11.478;2022-11-20T08:21:46;3.20;;;3.00;;
4676;SDS011;2352;48.180;11.478;2022-11-20T08:24:49;2.50;;;2.30;;
4676;SDS011;2352;48.180;11.478;2022-11-20T08:27:52;3.97;;;3.00;;
4676;SDS011;2352;48.180;11.478;2022-11-20T08:31:00;2.70;;;2.50;;
4676;SDS011;2352;48.180;11.478;2022-11-20T08:34:05;3.77;;;2.77;;
4676;SDS011;2352;48.180;11.478;2022-11-20T08:37:10;2.60;;;2.40;;
4676;SDS011;2352;48.180;11.478;2022-11-20T08:40:13;2.73;;;2.30;;
4676;SDS011;2352;48.180;11.478;2022-11-20T08:43:20;2.60;;;2.40;;
4676;SDS011;2352;48.180;11.478;2022-11-20T08:46:23;2.50;;;2.30;;
4676;SDS011;2352;48.180;11.478;2022-11-20T08:49:28;2.73;;;2.47;;
4676;SDS011;2352;48.180;11.478;2022-11-20T08:52:31;3.17;;;2.50;;
4676;SDS011;2352;48.180;11.478;2022-11-20T08:55:39;2.27;;;2.17;;
4676;SDS011;2352;48.180;11.478;2022-11-20T08:58:42;2.40;;;2.20;;
4676;SDS011;2352;48.180;11.478;2022-11-20T09:02:05;1.90;;;1.80;;
4676;SDS011;2352;48.180;11.478;2022-11-20T09:05:09;1.80;;;1.70;;
4676;SDS011;2352;48.180;11.478;2022-11-20T09:08:12;1.90;;;1.80;;
4676;SDS011;2352;48.180;11.478;2022-11-20T09:11:15;2.00;;;1.90;;
4676;SDS011;2352;48.180;11.478;2022-11-20T09:14:18;2.80;;;2.17;;
4676;SDS011;2352;48.180;11.478;2022-11-20T09:17:22;2.00;;;1.90;;
4676;SDS011;2352;48.180;11.478;2022-11-20T09:20:27;1.90;;;1.80;;
4676;SDS011;2352;48.180;11.478;2022-11-20T09:23:31;2.93;;;2.73;;
4676;SDS011;2352;48.180;11.478;2022-11-20T09:26:35;2.57;;;2.37;;
4676;SDS011;2352;48.180;11.478;2022-11-20T09:29:38;2.10;;;2.00;;
4676;SDS011;2352;48.180;11.478;2022-11-20T09:32:41;3.77;;;3.50;;
4676;SDS011;2352;48.180;11.478;2022-11-20T09:35:46;2.70;;;2.50;;
4676;SDS011;2352;48.180;11.478;2022-11-20T09:38:49;2.83;;;2.20;;
4676;SDS011;2352;48.180;11.478;2022-11-20T09:45:23;3.83;;;3.40;;
4676;SDS011;2352;48.180;11.478;2022-11-20T09:48:35;2.50;;;2.30;;
4676;SDS011;2352;48.180;11.478;2022-11-20T09:51:51;2.33;;;2.23;;
4676;SDS011;2352;48.180;11.478;2022-11-20T09:55:00;1.90;;;1.80;;
4676;SDS011;2352;48.180;11.478;2022-11-20T09:58:05;2.10;;;1.90;;
4676;SDS011;2352;48.180;11.478;2022-11-20T10:01:10;2.87;;;2.67;;
4676;SDS011;2352;48.180;11.478;2022-11-20T10:04:16;2.27;;;2.17;;
4676;SDS011;2352;48.180;11.478;2022-11-20T10:07:24;1.83;;;1.73;;
4676;SDS011;2352;48.180;11.478;2022-11-20T10:10:34;2.50;;;1.80;;
4676;SDS011;2352;48.180;11.478;2022-11-20T10:13:47;4.37;;;2.53;;
4676;SDS011;2352;48.180;11.478;2022-11-20T10:17:00;1.97;;;1.87;;
4676;SDS011;2352;48.180;11.478;2022-11-20T10:20:14;2.50;;;2.30;;
4676;SDS011;2352;48.180;11.478;2022-11-20T10:23:24;1.50;;;1.40;;
4676;SDS011;2352;48.180;11.478;2022-11-20T10:26:40;1.83;;;1.60;;
4676;SDS011;2352;48.180;11.478;2022-11-20T10:29:59;1.43;;;1.33;;
4676;SDS011;2352;48.180;11.478;2022-11-20T10:33:03;1.77;;;1.67;;
4676;SDS011;2352;48.180;11.478;2022-11-20T10:36:13;0.93;;;0.93;;
4676;SDS011;2352;48.180;11.478;2022-11-20T10:39:23;1.10;;;0.83;;
4676;SDS011;2352;48.180;11.478;2022-11-20T10:42:34;1.70;;;1.20;;
4676;SDS011;2352;48.180;11.478;2022-11-20T10:45:47;1.60;;;1.23;;
4676;SDS011;2352;48.180;11.478;2022-11-20T10:48:55;1.10;;;1.10;;
4676;SDS011;2352;48.180;11.478;2022-11-20T10:51:59;2.20;;;1.43;;
4676;SDS011;2352;48.180;11.478;2022-11-20T10:55:15;1.57;;;1.47;;
4676;SDS011;2352;48.180;11.478;2022-11-20T10:58:33;1.80;;;1.70;;
4676;SDS011;2352;48.180;11.478;2022-11-20T11:01:42;2.00;;;1.70;;
4676;SDS011;2352;48.180;11.478;2022-11-20T11:04:46;1.30;;;1.20;;
4676;SDS011;2352;48.180;11.478;2022-11-20T11:07:50;2.03;;;1.67;;
4676;SDS011;2352;48.180;11.478;2022-11-20T11:10:59;0.90;;;0.90;;
4676;SDS011;2352;48.180;11.478;2022-11-20T11:14:10;1.57;;;1.23;;
4676;SDS011;2352;48.180;11.478;2022-11-20T11:17:22;1.83;;;1.43;;
4676;SDS011;2352;48.180;11.478;2022-11-20T11:20:28;0.93;;;0.93;;
4676;SDS011;2352;48.180;11.478;2022-11-20T11:23:32;1.60;;;1.50;;
4676;SDS011;2352;48.180;11.478;2022-11-20T11:26:39;2.03;;;1.67;;
4676;SDS011;2352;48.180;11.478;2022-11-20T11:29:42;1.20;;;0.83;;
4676;SDS011;2352;48.180;11.478;2022-11-20T11:32:45;1.67;;;1.43;;
4676;SDS011;2352;48.180;11.478;2022-11-20T11:35:48;4.57;;;1.70;;
4676;SDS011;2352;48.180;11.478;2022-11-20T11:38:53;1.10;;;1.00;;
4676;SDS011;2352;48.180;11.478;2022-11-20T11:41:58;1.77;;;1.57;;
4676;SDS011;2352;48.180;11.478;2022-11-20T11:45:05;1.27;;;1.10;;
4676;SDS011;2352;48.180;11.478;2022-11-20T11:48:09;1.23;;;1.13;;
4676;SDS011;2352;48.180;11.478;2022-11-20T11:51:12;2.87;;;1.23;;
4676;SDS011;2352;48.180;11.478;2022-11-20T11:54:23;1.07;;;1.00;;
4676;SDS011;2352;48.180;11.478;2022-11-20T11:57:33;1.60;;;1.40;;
4676;SDS011;2352;48.180;11.478;2022-11-20T12:00:51;1.17;;;1.07;;
4676;SDS011;2352;48.180;11.478;2022-11-20T12:04:00;1.37;;;1.27;;
4676;SDS011;2352;48.180;11.478;2022-11-20T12:07:08;1.50;;;0.80;;
4676;SDS011;2352;48.180;11.478;2022-11-20T12:10:38;0.80;;;0.80;;
4676;SDS011;2352;48.180;11.478;2022-11-20T12:13:50;1.03;;;1.03;;
4676;SDS011;2352;48.180;11.478;2022-11-20T12:16:58;1.37;;;1.20;;
4676;SDS011;2352;48.180;11.478;2022-11-20T12:20:05;0.87;;;0.87;;
4676;SDS011;2352;48.180;11.478;2022-11-20T12:23:15;0.93;;;0.93;;
4676;SDS011;2352;48.180;11.478;2022-11-20T12:26:27;1.23;;;1.13;;
4676;SDS011;2352;48.180;11.478;2022-11-20T12:29:46;1.50;;;1.40;;
4676;SDS011;2352;48.180;11.478;2022-11-20T12:33:00;1.73;;;1.30;;
4676;SDS011;2352;48.180;11.478;2022-11-20T12:36:17;1.20;;;1.10;;
4676;SDS011;2352;48.180;11.478;2022-11-20T12:39:32;2.27;;;1.43;;
4676;SDS011;2352;48.180;11.478;2022-11-20T12:42:49;1.63;;;1.00;;
4676;SDS011;2352;48.180;11.478;2022-11-20T12:46:21;0.83;;;0.80;;
4676;SDS011;2352;48.180;11.478;2022-11-20T12:49:31;0.93;;;0.83;;
4676;SDS011;2352;48.180;11.478;2022-11-20T12:52:41;1.90;;;1.80;;
4676;SDS011;2352;48.180;11.478;2022-11-20T12:55:50;1.10;;;1.03;;
4676;SDS011;2352;48.180;11.478;2022-11-20T12:59:05;1.40;;;1.30;;
4676;SDS011;2352;48.180;11.478;2022-11-20T13:02:23;1.33;;;1.23;;
4676;SDS011;2352;48.180;11.478;2022-11-20T13:05:31;1.27;;;1.17;;
4676;SDS011;2352;48.180;11.478;2022-11-20T13:08:48;1.67;;;1.57;;
4676;SDS011;2352;48.180;11.478;2022-11-20T13:11:57;1.40;;;1.30;;
4676;SDS011;2352;48.180;11.478;2022-11-20T13:15:07;1.50;;;1.37;;
4676;SDS011;2352;48.180;11.478;2022-11-20T13:18:21;1.37;;;1.30;;
4676;SDS011;2352;48.180;11.478;2022-11-20T13:21:34;2.47;;;2.27;;
4676;SDS011;2352;48.180;11.478;2022-11-20T13:24:39;2.23;;;2.13;;
4676;SDS011;2352;48.180;11.478;2022-11-20T13:27:53;2.63;;;2.43;;
4676;SDS011;2352;48.180;11.478;2022-11-20T13:30:57;3.83;;;3.53;;
4676;SDS011;2352;48.180;11.478;2022-11-20T13:34:03;4.53;;;4.17;;
4676;SDS011;2352;48.180;11.478;2022-11-20T13:37:23;2.13;;;2.00;;
4676;SDS011;2352;48.180;11.478;2022-11-20T13:40:28;6.17;;;5.63;;
4676;SDS011;2352;48.180;11.478;2022-11-20T13:43:33;2.47;;;2.27;;
4676;SDS011;2352;48.180;11.478;2022-11-20T13:46:40;2.00;;;1.80;;
4676;SDS011;2352;48.180;11.478;2022-11-20T13:49:47;2.80;;;2.60;;
4676;SDS011;2352;48.180;11.478;2022-11-20T13:52:52;4.40;;;4.10;;
4676;SDS011;2352;48.180;11.478;2022-11-20T13:56:05;2.40;;;1.80;;
4676;SDS011;2352;48.180;11.478;2022-11-20T13:59:23;4.03;;;3.73;;
4676;SDS011;2352;48.180;11.478;2022-11-20T14:02:58;3.17;;;2.10;;
4676;SDS011;2352;48.180;11.478;2022-11-20T14:06:11;4.40;;;1.77;;
4676;SDS011;2352;48.180;11.478;2022-11-20T14:09:24;1.70;;;1.60;;
4676;SDS011;2352;48.180;11.478;2022-11-20T14:12:31;1.63;;;1.53;;
4676;SDS011;2352;48.180;11.478;2022-11-20T14:15:39;1.63;;;1.53;;
4676;SDS011;2352;48.180;11.478;2022-11-20T14:18:45;5.07;;;2.53;;
4676;SDS011;2352;48.180;11.478;2022-11-20T14:21:51;2.37;;;2.13;;
4676;SDS011;2352;48.180;11.478;2022-11-20T14:25:06;3.00;;;2.80;;
4676;SDS011;2352;48.180;11.478;2022-11-20T14:28:22;1.57;;;1.43;;
4676;SDS011;2352;48.180;11.478;2022-11-20T14:31:28;2.40;;;1.57;;
4676;SDS011;2352;48.180;11.478;2022-11-20T14:34:32;1.40;;;1.30;;
4676;SDS011;2352;48.180;11.478;2022-11-20T14:37:46;1.97;;;1.83;;
4676;SDS011;2352;48.180;11.478;2022-11-20T14:40:49;0.83;;;0.83;;
4676;SDS011;2352;48.180;11.478;2022-11-20T14:43:53;1.30;;;1.17;;
4676;SDS011;2352;48.180;11.478;2022-11-20T14:46:59;1.70;;;1.60;;
4676;SDS011;2352;48.180;11.478;2022-11-20T14:50:07;2.80;;;2.60;;
4676;SDS011;2352;48.180;11.478;2022-11-20T14:53:22;0.90;;;0.90;;
4676;SDS011;2352;48.180;11.478;2022-11-20T14:56:26;1.10;;;1.00;;
4676;SDS011;2352;48.180;11.478;2022-11-20T14:59:29;0.80;;;0.80;;
4676;SDS011;2352;48.180;11.478;2022-11-20T15:02:33;1.33;;;1.13;;
4676;SDS011;2352;48.180;11.478;2022-11-20T15:05:44;1.30;;;0.70;;
4676;SDS011;2352;48.180;11.478;2022-11-20T15:08:51;0.90;;;0.80;;
4676;SDS011;2352;48.180;11.478;2022-11-20T15:11:55;1.47;;;1.20;;
4676;SDS011;2352;48.180;11.478;2022-11-20T15:14:59;0.90;;;0.90;;
4676;SDS011;2352;48.180;11.478;2022-11-20T15:18:03;3.00;;;0.87;;
4676;SDS011;2352;48.180;11.478;2022-11-20T15:21:09;1.33;;;1.23;;
4676;SDS011;2352;48.180;11.478;2022-11-20T15:24:15;1.50;;;1.10;;
4676;SDS011;2352;48.180;11.478;2022-11-20T15:27:18;1.23;;;1.00;;
4676;SDS011;2352;48.180;11.478;2022-11-20T15:30:21;1.83;;;0.90;;
4676;SDS011;2352;48.180;11.478;2022-11-20T15:33:25;1.53;;;1.23;;
4676;SDS011;2352;48.180;11.478;2022-11-20T15:36:28;1.80;;;0.87;;
4676;SDS011;2352;48.180;11.478;2022-11-20T15:39:32;1.97;;;1.50;;
4676;SDS011;2352;48.180;11.478;2022-11-20T15:42:35;1.50;;;1.40;;
4676;SDS011;2352;48.180;11.478;2022-11-20T15:45:38;1.97;;;1.80;;
4676;SDS011;2352;48.180;11.478;2022-11-20T15:48:44;4.40;;;3.30;;
4676;SDS011;2352;48.180;11.478;2022-11-20T15:51:49;2.43;;;1.27;;
4676;SDS011;2352;48.180;11.478;2022-11-20T15:54:55;1.10;;;1.00;;
4676;SDS011;2352;48.180;11.478;2022-11-20T15:57:58;1.63;;;1.37;;
4676;SDS011;2352;48.180;11.478;2022-11-20T16:01:00;1.93;;;1.80;;
4676;SDS011;2352;48.180;11.478;2022-11-20T16:04:04;1.77;;;1.63;;
4676;SDS011;2352;48.180;11.478;2022-11-20T16:07:11;2.53;;;1.90;;
4676;SDS011;2352;48.180;11.478;2022-11-20T16:10:16;2.30;;;1.87;;
4676;SDS011;2352;48.180;11.478;2022-11-20T16:13:19;1.40;;;1.30;;
4676;SDS011;2352;48.180;11.478;2022-11-20T16:16:40;1.70;;;1.60;;
4676;SDS011;2352;48.180;11.478;2022-11-20T16:19:45;1.30;;;1.20;;
4676;SDS011;2352;48.180;11.478;2022-11-20T16:22:48;1.97;;;1.87;;
4676;SDS011;2352;48.180;11.478;2022-11-20T16:25:53;1.97;;;1.87;;
4676;SDS011;2352;48.180;11.478;2022-11-20T16:28:58;2.20;;;2.03;;
4676;SDS011;2352;48.180;11.478;2022-11-20T16:32:01;1.70;;;1.60;;
4676;SDS011;2352;48.180;11.478;2022-11-20T16:35:04;2.40;;;2.20;;
4676;SDS011;2352;48.180;11.478;2022-11-20T16:38:09;1.83;;;1.73;;
4676;SDS011;2352;48.180;11.478;2022-11-20T16:41:13;2.17;;;1.97;;
4676;SDS011;2352;48.180;11.478;2022-11-20T16:44:16;3.00;;;2.80;;
4676;SDS011;2352;48.180;11.478;2022-11-20T16:47:19;4.40;;;3.90;;
4676;SDS011;2352;48.180;11.478;2022-11-20T16:50:22;3.40;;;3.10;;
4676;SDS011;2352;48.180;11.478;2022-11-20T16:53:25;3.60;;;3.30;;
4676;SDS011;2352;48.180;11.478;2022-11-20T16:56:29;5.03;;;4.63;;
4676;SDS011;2352;48.180;11.478;2022-11-20T16:59:32;4.50;;;4.10;;
4676;SDS011;2352;48.180;11.478;2022-11-20T17:02:35;8.77;;;8.07;;
4676;SDS011;2352;48.180;11.478;2022-11-20T17:05:38;11.17;;;10.30;;
4676;SDS011;2352;48.180;11.478;2022-11-20T17:08:41;8.50;;;7.83;;
4676;SDS011;2352;48.180;11.478;2022-11-20T17:11:46;8.57;;;7.87;;
4676;SDS011;2352;48.180;11.478;2022-11-20T17:14:49;7.07;;;6.57;;
4676;SDS011;2352;48.180;11.478;2022-11-20T17:17:52;6.57;;;6.07;;
4676;SDS011;2352;48.180;11.478;2022-11-20T17:20:56;8.07;;;7.30;;
4676;SDS011;2352;48.180;11.478;2022-11-20T17:24:00;7.17;;;6.43;;
4676;SDS011;2352;48.180;11.478;2022-11-20T17:27:06;6.00;;;5.33;;
4676;SDS011;2352;48.180;11.478;2022-11-20T17:30:09;6.57;;;5.97;;
4676;SDS011;2352;48.180;11.478;2022-11-20T17:33:12;6.53;;;5.83;;
4676;SDS011;2352;48.180;11.478;2022-11-20T17:36:15;7.00;;;6.40;;
4676;SDS011;2352;48.180;11.478;2022-11-20T17:39:21;6.63;;;5.87;;
4676;SDS011;2352;48.180;11.478;2022-11-20T17:42:25;6.17;;;5.47;;
4676;SDS011;2352;48.180;11.478;2022-11-20T17:45:29;6.10;;;5.60;;
4676;SDS011;2352;48.180;11.478;2022-11-20T17:48:32;8.47;;;5.43;;
4676;SDS011;2352;48.180;11.478;2022-11-20T17:51:35;6.43;;;5.80;;
4676;SDS011;2352;48.180;11.478;2022-11-20T17:54:38;6.43;;;5.93;;
4676;SDS011;2352;48.180;11.478;2022-11-20T17:57:43;5.23;;;4.83;;
4676;SDS011;2352;48.180;11.478;2022-11-20T18:01:03;6.23;;;5.83;;
4676;SDS011;2352;48.180;11.478;2022-11-20T18:04:07;6.53;;;6.03;;
4676;SDS011;2352;48.180;11.478;2022-11-20T18:07:10;8.03;;;7.33;;
4676;SDS011;2352;48.180;11.478;2022-11-20T18:10:13;6.63;;;6.13;;
4676;SDS011;2352;48.180;11.478;2022-11-20T18:13:18;9.27;;;8.47;;
4676;SDS011;2352;48.180;11.478;2022-11-20T18:16:48;10.03;;;9.13;;
4676;SDS011;2352;48.180;11.478;2022-11-20T18:19:52;10.30;;;8.80;;
4676;SDS011;2352;48.180;11.478;2022-11-20T18:23:15;8.23;;;7.63;;
4676;SDS011;2352;48.180;11.478;2022-11-20T18:26:18;6.90;;;6.30;;
4676;SDS011;2352;48.180;11.478;2022-11-20T18:29:22;11.07;;;9.37;;
4676;SDS011;2352;48.180;11.478;2022-11-20T18:32:26;11.07;;;10.07;;
4676;SDS011;2352;48.180;11.478;2022-11-20T18:35:29;10.07;;;9.13;;
4676;SDS011;2352;48.180;11.478;2022-11-20T18:38:32;11.70;;;10.63;;
4676;SDS011;2352;48.180;11.478;2022-11-20T18:41:35;11.47;;;10.50;;
4676;SDS011;2352;48.180;11.478;2022-11-20T18:44:57;11.17;;;10.20;;
4676;SDS011;2352;48.180;11.478;2022-11-20T18:48:01;10.63;;;9.73;;
4676;SDS011;2352;48.180;11.478;2022-11-20T18:51:04;11.13;;;10.13;;
4676;SDS011;2352;48.180;11.478;2022-11-20T18:54:07;9.37;;;8.57;;
4676;SDS011;2352;48.180;11.478;2022-11-20T18:57:11;11.33;;;9.63;;
4676;SDS011;2352;48.180;11.478;2022-11-20T19:00:17;12.60;;;11.43;;
4676;SDS011;2352;48.180;11.478;2022-11-20T19:03:20;14.53;;;12.70;;